Time;durP1;ratioP1;P1;durP2;ratioP2;P2;SDS_P1;SDS_P2;PMS_P1;PMS_P2;Temp;Humidity;BMP_temperature;BMP_pressure;BME280_temperature;BME280_humidity;BME280_pressure;Samples;Min_cycle;Max_cycle;Signal;HPM_P1;HPM_P2
2021/12/08 00:04:48;;;;;;;5.23;1.90;;;7.40;99.90;;;;;;5076906;28;20207;-84
2021/12/08 00:07:42;;;;;;;8.07;2.33;;;7.40;99.90;;;;;;5076997;28;20190;-83
2021/12/08 00:10:49;;;;;;;6.70;2.00;;;7.50;99.90;;;;;;5077061;28;20258;-83
2021/12/08 00:13:34;;;;;;;3.70;1.93;;;7.40;99.90;;;;;;5076231;28;20190;-84
2021/12/08 00:16:51;;;;;;;7.37;2.30;;;7.40;99.90;;;;;;5059040;28;20198;-84
2021/12/08 00:19:54;;;;;;;2.67;1.97;;;7.50;99.90;;;;;;5071748;28;20202;-83
2021/12/08 00:28:16;;;;;;;8.13;2.50;;;7.40;99.90;;;;;;3425680;22;20313;-83
2021/12/08 00:48:53;;;;;;;8.05;2.28;;;7.10;99.90;;;;;;5045502;26;20425;-83
2021/12/08 00:51:26;;;;;;;7.70;2.20;;;7.00;99.90;;;;;;5079485;28;20210;-84
2021/12/08 01:11:29;;;;;;;7.40;2.20;;;6.90;99.90;;;;;;5365460;22;20247;-83
2021/12/08 01:36:36;;;;;;;11.83;2.20;;;7.00;99.90;;;;;;1040817;25;20589;-83
2021/12/08 01:54:13;;;;;;;5.30;1.20;;;7.10;99.90;;;;;;5417272;22;20229;-83
2021/12/08 01:57:00;;;;;;;7.73;1.60;;;6.90;99.90;;;;;;5117615;28;20192;-83
2021/12/08 02:02:31;;;;;;;6.70;1.63;;;6.90;99.90;;;;;;4456038;22;20237;-83
2021/12/08 02:05:18;;;;;;;4.93;1.53;;;6.90;99.90;;;;;;5097866;28;20264;-83
2021/12/08 02:14:01;;;;;;;7.93;1.80;;;6.80;99.90;;;;;;5096500;28;20241;-83
2021/12/08 02:16:38;;;;;;;5.40;1.63;;;6.70;99.90;;;;;;5097512;28;20201;-83
2021/12/08 02:19:11;;;;;;;7.20;1.60;;;6.70;99.90;;;;;;5080142;28;20211;-83
2021/12/08 02:21:52;;;;;;;5.83;1.90;;;6.80;99.90;;;;;;5097419;28;20241;-83
2021/12/08 02:24:43;;;;;;;6.30;1.40;;;6.70;99.90;;;;;;5097553;28;20237;-83
2021/12/08 02:27:24;;;;;;;5.33;1.67;;;6.70;99.90;;;;;;5097356;28;20236;-83
2021/12/08 02:30:52;;;;;;;5.33;2.23;;;6.50;99.90;;;;;;5096950;28;20252;-83
2021/12/08 02:48:00;;;;;;;6.33;2.00;;;6.50;99.90;;;;;;5095689;28;20209;-83
2021/12/08 02:51:01;;;;;;;3.13;1.67;;;6.50;99.90;;;;;;5098588;28;20192;-84
2021/12/08 02:56:59;;;;;;;6.27;1.60;;;6.40;99.90;;;;;;5103878;22;20275;-83
2021/12/08 02:59:41;;;;;;;7.43;2.10;;;6.40;99.90;;;;;;5095905;28;20206;-83
2021/12/08 03:02:16;;;;;;;5.80;1.60;;;6.30;99.90;;;;;;5178009;22;20229;-84
2021/12/08 03:05:00;;;;;;;4.13;1.87;;;6.20;99.90;;;;;;5114955;28;20237;-83
2021/12/08 03:07:33;;;;;;;4.37;1.23;;;6.20;99.90;;;;;;5096078;28;20186;-83
2021/12/08 03:10:07;;;;;;;7.33;1.80;;;6.20;99.90;;;;;;5077894;28;20205;-83
2021/12/08 03:15:49;;;;;;;6.10;1.10;;;6.10;99.90;;;;;;5095295;28;20206;-83
2021/12/08 03:18:35;;;;;;;5.72;1.92;;;6.20;99.90;;;;;;5095568;28;20423;-82
2021/12/08 03:21:27;;;;;;;4.50;1.50;;;6.20;99.90;;;;;;5094665;28;20209;-83
2021/12/08 03:24:09;;;;;;;3.70;1.20;;;6.20;99.90;;;;;;5095058;28;20205;-83
2021/12/08 03:31:05;;;;;;;3.93;1.23;;;6.10;99.90;;;;;;5117776;28;20224;-83
2021/12/08 03:37:42;;;;;;;6.47;2.40;;;5.90;99.90;;;;;;5049856;22;20223;-82
2021/12/08 03:40:20;;;;;;;7.93;1.90;;;6.00;99.90;;;;;;5075461;28;20237;-84
2021/12/08 03:43:00;;;;;;;4.93;1.67;;;5.90;99.90;;;;;;5074954;28;20269;-83
2021/12/08 03:45:59;;;;;;;6.77;1.50;;;5.80;99.90;;;;;;5095940;22;20237;-83
2021/12/08 03:48:37;;;;;;;9.33;1.53;;;5.90;99.90;;;;;;5073686;28;20202;-83
2021/12/08 03:54:27;;;;;;;9.40;2.20;;;5.90;99.90;;;;;;5075357;28;20424;-83
2021/12/08 03:57:37;;;;;;;8.83;2.53;;;5.80;99.90;;;;;;5075629;28;20220;-83
2021/12/08 04:00:29;;;;;;;8.03;1.80;;;5.80;99.90;;;;;;5075241;28;20243;-83
2021/12/08 04:03:12;;;;;;;8.70;2.00;;;5.80;99.90;;;;;;5058319;28;20202;-84
2021/12/08 04:05:54;;;;;;;9.37;2.13;;;5.80;99.90;;;;;;5075314;28;20240;-83
2021/12/08 04:08:58;;;;;;;5.00;1.80;;;5.90;99.90;;;;;;5075065;28;20198;-83
2021/12/08 04:11:37;;;;;;;8.67;2.27;;;5.80;99.90;;;;;;5057196;28;20182;-84
2021/12/08 04:14:20;;;;;;;8.37;1.97;;;5.80;99.90;;;;;;5074628;28;20213;-83
2021/12/08 04:17:07;;;;;;;10.27;2.20;;;5.70;99.90;;;;;;5057673;28;20194;-83
2021/12/08 04:19:45;;;;;;;10.63;2.33;;;5.70;99.90;;;;;;5057156;28;20198;-83
2021/12/08 04:24:57;;;;;;;14.13;2.33;;;5.70;99.90;;;;;;5183875;22;20217;-83
2021/12/08 04:28:20;;;;;;;9.30;2.53;;;5.60;99.90;;;;;;5095304;28;20204;-83
2021/12/08 04:31:21;;;;;;;8.33;1.80;;;5.70;99.90;;;;;;5077580;28;20186;-83
2021/12/08 04:34:12;;;;;;;11.33;1.97;;;5.70;99.90;;;;;;5093806;28;20200;-81
2021/12/08 04:37:03;;;;;;;12.23;2.37;;;5.80;99.90;;;;;;5363530;22;20416;-83
2021/12/08 04:39:49;;;;;;;9.10;2.67;;;5.70;99.90;;;;;;5037662;28;20266;-83
2021/12/08 04:45:35;;;;;;;10.77;2.10;;;5.60;99.90;;;;;;5171834;22;20223;-84
2021/12/08 05:00:15;;;;;;;5.03;2.37;;;5.40;99.90;;;;;;5070933;28;20202;-83
2021/12/08 05:03:18;;;;;;;9.90;2.00;;;5.50;99.90;;;;;;5084732;28;20286;-83
2021/12/08 05:06:19;;;;;;;6.50;2.10;;;5.50;99.90;;;;;;5093857;28;20217;-83
2021/12/08 05:08:52;;;;;;;5.90;1.50;;;5.40;99.90;;;;;;5114989;22;20491;-84
2021/12/08 05:14:47;;;;;;;5.93;1.50;;;5.30;99.90;;;;;;5222649;22;20465;-83
2021/12/08 05:20:00;;;;;;;7.27;1.63;;;5.30;99.90;;;;;;5054156;28;20480;-82
2021/12/08 05:22:41;;;;;;;6.10;1.63;;;5.40;99.90;;;;;;5038360;28;20210;-83
2021/12/08 05:25:22;;;;;;;5.63;1.43;;;5.30;99.90;;;;;;5055564;28;20480;-82
2021/12/08 05:27:55;;;;;;;13.13;2.10;;;5.20;99.90;;;;;;5055245;28;20455;-83
2021/12/08 05:30:29;;;;;;;6.90;1.70;;;5.30;99.90;;;;;;5094675;22;20245;-83
2021/12/08 05:33:03;;;;;;;4.77;1.97;;;5.30;99.90;;;;;;5076997;28;20485;-82
2021/12/08 05:35:36;;;;;;;5.10;1.30;;;5.20;99.90;;;;;;5077173;28;20458;-86
2021/12/08 05:38:18;;;;;;;6.20;2.40;;;5.30;99.90;;;;;;5075187;28;20208;-85
2021/12/08 05:40:54;;;;;;;7.87;1.53;;;5.30;99.90;;;;;;5072963;28;20210;-86
2021/12/08 05:43:31;;;;;;;6.40;1.67;;;5.20;99.90;;;;;;5074629;28;20209;-86
2021/12/08 05:45:59;;;;;;;7.88;2.00;;;5.30;99.90;;;;;;5073613;28;20456;-86
2021/12/08 05:48:48;;;;;;;6.67;1.73;;;5.20;99.90;;;;;;5074832;28;20210;-86
2021/12/08 05:51:31;;;;;;;11.07;1.80;;;5.20;99.90;;;;;;5075360;28;20458;-86
2021/12/08 05:54:06;;;;;;;9.60;1.60;;;5.30;99.90;;;;;;5074465;28;20452;-85
2021/12/08 05:56:37;;;;;;;9.73;1.57;;;5.30;99.90;;;;;;5074629;28;20447;-86
2021/12/08 05:59:10;;;;;;;6.87;1.67;;;5.30;99.90;;;;;;5071296;28;20456;-85
2021/12/08 06:01:44;;;;;;;5.73;1.90;;;5.30;99.90;;;;;;5071715;28;20589;-85
2021/12/08 06:04:25;;;;;;;9.80;2.03;;;5.30;99.90;;;;;;5071542;28;20237;-85
2021/12/08 06:06:54;;;;;;;9.40;2.03;;;5.20;99.90;;;;;;5070287;28;20226;-85
2021/12/08 06:09:47;;;;;;;11.80;1.73;;;5.20;99.90;;;;;;5070164;28;20490;-85
2021/12/08 06:12:28;;;;;;;8.40;1.73;;;5.20;99.90;;;;;;5070963;28;20210;-85
2021/12/08 06:15:06;;;;;;;11.13;1.80;;;5.20;99.90;;;;;;5071133;28;20443;-85
2021/12/08 06:17:42;;;;;;;4.30;1.90;;;5.20;99.90;;;;;;5072037;28;20454;-86
2021/12/08 06:20:20;;;;;;;6.87;1.40;;;5.20;99.90;;;;;;5072125;28;20638;-86
2021/12/08 06:22:56;;;;;;;11.93;1.70;;;5.20;99.90;;;;;;5071858;28;20262;-86
2021/12/08 06:25:24;;;;;;;10.57;1.93;;;5.30;99.90;;;;;;5072677;28;20793;-85
2021/12/08 06:27:57;;;;;;;11.10;1.73;;;5.30;99.90;;;;;;5071171;28;20209;-85
2021/12/08 06:30:27;;;;;;;8.53;1.60;;;5.20;99.90;;;;;;5073456;28;20218;-86
2021/12/08 06:33:14;;;;;;;8.80;1.93;;;5.30;99.90;;;;;;5072122;28;20218;-84
2021/12/08 06:35:50;;;;;;;9.93;2.00;;;5.40;99.90;;;;;;5071269;28;20210;-85
2021/12/08 06:38:31;;;;;;;9.90;1.80;;;5.30;99.90;;;;;;5071237;28;20237;-85
2021/12/08 06:41:11;;;;;;;9.67;2.60;;;5.20;99.90;;;;;;5071847;28;20448;-86
2021/12/08 06:57:43;;;;;;;9.53;2.30;;;5.30;99.90;;;;;;5073688;28;20201;-85
2021/12/08 10:14:52;;;;;;;10.82;1.67;;;6.40;99.90;;;;;;6159142;22;1273836;-83
2021/12/08 10:17:20;;;;;;;5.50;1.70;;;6.40;99.90;;;;;;6226214;23;20232;-81
2021/12/08 10:20:07;;;;;;;6.83;1.87;;;6.40;99.90;;;;;;6244970;23;20177;-82
2021/12/08 10:22:35;;;;;;;6.23;1.70;;;6.50;99.90;;;;;;6246425;23;20328;-83
2021/12/08 10:25:07;;;;;;;3.97;1.20;;;6.50;99.90;;;;;;6247535;22;20162;-82
2021/12/08 10:28:06;;;;;;;8.13;2.17;;;6.40;99.90;;;;;;6246034;23;20174;-83
2021/12/08 10:30:41;;;;;;;7.13;1.50;;;6.50;99.90;;;;;;6246687;22;20181;-84
2021/12/08 10:33:35;;;;;;;6.40;1.60;;;6.50;99.90;;;;;;6247311;23;20632;-87
2021/12/08 10:36:05;;;;;;;8.30;1.73;;;6.40;99.90;;;;;;6247374;23;20224;-84
2021/12/08 10:38:39;;;;;;;5.40;1.63;;;6.30;99.90;;;;;;6246742;23;20474;-82
2021/12/08 10:41:08;;;;;;;6.93;1.50;;;6.30;99.90;;;;;;6247046;23;20168;-88
2021/12/08 10:43:41;;;;;;;7.43;1.37;;;6.20;99.90;;;;;;6248905;23;20585;-86
2021/12/08 10:46:11;;;;;;;4.10;1.63;;;6.20;99.90;;;;;;6254920;23;20229;-79
2021/12/08 10:48:44;;;;;;;8.03;1.60;;;6.20;99.90;;;;;;6252141;23;20184;-86
2021/12/08 10:54:30;;;;;;;3.80;1.47;;;6.20;99.90;;;;;;6252609;23;20169;-85
2021/12/08 10:56:58;;;;;;;10.23;2.00;;;6.20;99.90;;;;;;6249010;23;20190;-90
2021/12/08 10:59:27;;;;;;;5.40;1.43;;;6.20;99.90;;;;;;6253066;23;20190;-91
2021/12/08 11:01:59;;;;;;;4.97;1.83;;;6.20;99.90;;;;;;6248162;23;20181;-77
2021/12/08 11:04:32;;;;;;;6.23;1.90;;;6.30;99.90;;;;;;6246815;23;20167;-77
2021/12/08 11:07:06;;;;;;;4.80;1.50;;;6.20;99.90;;;;;;6246822;22;20502;-84
2021/12/08 11:09:44;;;;;;;2.87;1.43;;;6.20;99.90;;;;;;6247357;23;20165;-83
2021/12/08 11:12:11;;;;;;;5.27;1.63;;;6.20;99.90;;;;;;6246481;23;20162;-81
2021/12/08 11:14:46;;;;;;;3.63;1.53;;;6.20;99.90;;;;;;6246665;23;20166;-84
2021/12/08 11:17:28;;;;;;;5.13;1.67;;;6.20;99.90;;;;;;6246487;23;20537;-82
2021/12/08 11:20:29;;;;;;;6.13;1.77;;;6.20;99.90;;;;;;6246616;23;20173;-85
2021/12/08 11:23:01;;;;;;;3.37;1.43;;;6.40;99.90;;;;;;6181188;23;20182;-81
2021/12/08 11:25:39;;;;;;;5.57;1.50;;;6.40;99.90;;;;;;6247000;23;20616;-80
2021/12/08 11:28:21;;;;;;;8.37;1.67;;;6.60;99.90;;;;;;6246819;23;20509;-77
2021/12/08 11:30:49;;;;;;;6.27;2.10;;;6.60;99.90;;;;;;6244096;22;20476;-84
2021/12/08 11:33:21;;;;;;;7.13;2.30;;;6.60;99.90;;;;;;6247388;23;20168;-82
2021/12/08 11:35:49;;;;;;;3.87;1.40;;;6.50;99.90;;;;;;6247132;23;20273;-81
2021/12/08 11:38:25;;;;;;;7.13;1.70;;;6.60;99.90;;;;;;6247115;23;20473;-78
2021/12/08 11:40:54;;;;;;;5.40;1.90;;;6.70;99.90;;;;;;6246544;23;20174;-78
2021/12/08 11:43:29;;;;;;;2.97;1.40;;;6.60;99.90;;;;;;6246231;23;20172;-77
2021/12/08 11:46:14;;;;;;;8.30;1.90;;;6.50;99.90;;;;;;6246570;23;20235;-78
2021/12/08 11:48:57;;;;;;;6.63;2.50;;;6.50;99.90;;;;;;6246323;22;20204;-79
2021/12/08 11:51:25;;;;;;;8.90;1.50;;;6.60;99.90;;;;;;6246528;23;20204;-82
2021/12/08 11:53:52;;;;;;;5.07;2.00;;;6.60;99.90;;;;;;6244539;23;20174;-80
2021/12/08 11:56:35;;;;;;;6.22;1.88;;;6.70;99.90;;;;;;6245241;23;20406;-80
2021/12/08 11:59:04;;;;;;;7.03;1.77;;;6.90;99.90;;;;;;6247288;23;20197;-83
2021/12/08 12:01:32;;;;;;;3.10;1.40;;;6.80;99.90;;;;;;6247570;23;20216;-85
2021/12/08 12:04:00;;;;;;;8.07;2.27;;;6.80;99.90;;;;;;6247326;23;20198;-85
2021/12/08 12:06:28;;;;;;;7.67;1.53;;;6.90;99.90;;;;;;6247702;23;20168;-79
2021/12/08 12:09:01;;;;;;;7.93;1.27;;;6.80;99.90;;;;;;6247458;23;20184;-83
2021/12/08 12:11:30;;;;;;;4.87;1.43;;;6.80;99.90;;;;;;6245930;23;20489;-78
2021/12/08 12:13:59;;;;;;;7.20;2.17;;;6.90;99.90;;;;;;6245855;23;20660;-81
2021/12/08 12:16:27;;;;;;;8.10;1.80;;;6.90;99.90;;;;;;6247084;23;20208;-80
2021/12/08 12:18:56;;;;;;;5.53;1.97;;;6.80;99.90;;;;;;6247852;23;20189;-86
2021/12/08 12:21:33;;;;;;;6.93;1.80;;;6.80;99.90;;;;;;6246844;23;20627;-82
2021/12/08 12:24:28;;;;;;;8.93;1.60;;;6.80;99.90;;;;;;6247078;23;20176;-82
2021/12/08 12:27:09;;;;;;;3.47;1.80;;;6.80;99.90;;;;;;6232718;23;20174;-81
2021/12/08 12:29:53;;;;;;;6.37;1.77;;;6.90;99.90;;;;;;6246818;23;20172;-85
2021/12/08 12:32:25;;;;;;;4.37;1.80;;;6.90;99.90;;;;;;6247514;23;20170;-84
2021/12/08 12:35:10;;;;;;;3.63;1.60;;;6.90;99.90;;;;;;6247196;23;20190;-88
2021/12/08 12:37:39;;;;;;;6.87;1.60;;;7.00;99.90;;;;;;6247348;23;20202;-83
2021/12/08 12:40:09;;;;;;;7.03;1.60;;;6.90;99.90;;;;;;6245811;23;20292;-81
2021/12/08 12:42:51;;;;;;;9.93;2.10;;;6.90;99.90;;;;;;6246481;23;20170;-81
2021/12/08 12:45:21;;;;;;;3.87;1.70;;;6.90;99.90;;;;;;6246192;23;20188;-83
2021/12/08 12:48:10;;;;;;;3.80;1.77;;;7.00;99.90;;;;;;6246099;23;20224;-78
2021/12/08 12:51:03;;;;;;;4.47;2.00;;;7.00;99.90;;;;;;6246401;23;20463;-84
2021/12/08 12:53:39;;;;;;;3.57;2.00;;;7.00;99.90;;;;;;6246696;23;20178;-79
2021/12/08 12:56:07;;;;;;;6.33;1.93;;;6.90;99.90;;;;;;6246331;23;20200;-83
2021/12/08 12:58:53;;;;;;;3.27;1.77;;;6.80;99.90;;;;;;6246500;23;20609;-84
2021/12/08 13:01:27;;;;;;;3.50;1.77;;;6.90;99.90;;;;;;6246244;23;20252;-84
2021/12/08 13:03:57;;;;;;;4.07;1.93;;;7.00;99.90;;;;;;6246021;22;20620;-81
2021/12/08 13:06:48;;;;;;;3.10;1.50;;;7.10;99.90;;;;;;6238020;23;20182;-76
2021/12/08 13:09:47;;;;;;;5.07;1.90;;;7.00;99.90;;;;;;6244040;23;20408;-75
2021/12/08 13:12:18;;;;;;;3.67;1.50;;;7.20;99.90;;;;;;6123108;23;20232;-78
2021/12/08 13:14:47;;;;;;;4.50;1.40;;;7.10;99.90;;;;;;6224086;22;20180;-83
2021/12/08 13:17:25;;;;;;;3.70;1.30;;;7.00;99.90;;;;;;6248442;22;20532;-83
2021/12/08 13:19:57;;;;;;;8.43;1.80;;;7.00;99.90;;;;;;6246897;23;20172;-81
2021/12/08 13:22:44;;;;;;;5.10;1.63;;;6.90;99.90;;;;;;6245903;23;20162;-80
2021/12/08 13:25:41;;;;;;;3.30;1.40;;;7.00;99.90;;;;;;6246098;23;20177;-78
2021/12/08 13:28:18;;;;;;;4.97;1.83;;;7.00;99.90;;;;;;6245214;23;20540;-76
2021/12/08 13:30:48;;;;;;;3.07;2.23;;;7.00;99.90;;;;;;6245770;23;20169;-78
2021/12/08 13:33:36;;;;;;;4.93;1.73;;;7.00;99.90;;;;;;6246283;23;20172;-82
2021/12/08 13:36:46;;;;;;;7.13;2.30;;;6.90;99.90;;;;;;6246313;22;20193;-77
2021/12/08 13:39:26;;;;;;;4.10;2.00;;;6.90;99.90;;;;;;6188729;22;20894;-75
2021/12/08 13:42:01;;;;;;;3.97;1.87;;;7.00;99.90;;;;;;6246633;22;20263;-76
2021/12/08 13:44:33;;;;;;;2.57;1.30;;;6.90;99.90;;;;;;6247639;22;20172;-77
2021/12/08 13:47:02;;;;;;;4.23;1.90;;;7.00;99.90;;;;;;6247238;23;20687;-76
2021/12/08 13:49:34;;;;;;;5.23;1.70;;;7.00;99.90;;;;;;6247696;23;20632;-76
2021/12/08 13:52:23;;;;;;;3.67;1.70;;;7.00;99.90;;;;;;6247223;23;20817;-77
2021/12/08 13:54:51;;;;;;;3.50;1.90;;;6.90;99.90;;;;;;6231187;22;20174;-77
2021/12/08 13:57:32;;;;;;;5.90;1.70;;;6.90;99.90;;;;;;6247781;23;20205;-80
2021/12/08 14:00:01;;;;;;;3.40;1.67;;;7.00;99.90;;;;;;6247583;23;20170;-81
2021/12/08 14:02:30;;;;;;;3.07;1.80;;;7.10;99.90;;;;;;6248135;23;20170;-82
2021/12/08 14:05:08;;;;;;;3.50;1.67;;;7.10;99.90;;;;;;6247947;23;20171;-79
2021/12/08 14:07:37;;;;;;;4.07;1.77;;;7.10;99.90;;;;;;6247980;23;20193;-80
2021/12/08 14:10:09;;;;;;;3.07;1.80;;;7.10;99.90;;;;;;6248375;23;20170;-77
2021/12/08 14:12:46;;;;;;;4.77;1.77;;;7.20;99.90;;;;;;6247811;23;20217;-79
2021/12/08 14:15:18;;;;;;;4.50;1.70;;;7.20;99.90;;;;;;6247355;23;20162;-77
2021/12/08 14:17:45;;;;;;;1.57;1.30;;;7.20;99.90;;;;;;6246914;23;20209;-78
2021/12/08 14:20:34;;;;;;;4.93;1.80;;;7.30;99.90;;;;;;6247900;23;20177;-86
2021/12/08 14:23:03;;;;;;;3.90;2.13;;;7.30;99.90;;;;;;6246369;22;20398;-79
2021/12/08 14:25:40;;;;;;;3.53;2.00;;;7.50;99.90;;;;;;6247215;22;20192;-80
2021/12/08 14:28:38;;;;;;;6.07;1.87;;;7.60;99.90;;;;;;6247126;23;20173;-79
2021/12/08 14:31:07;;;;;;;3.63;1.97;;;7.60;99.90;;;;;;6246929;22;20265;-76
2021/12/08 14:33:34;;;;;;;5.53;2.03;;;7.40;99.90;;;;;;6246350;23;20590;-78
2021/12/08 14:36:03;;;;;;;6.93;2.03;;;7.20;99.90;;;;;;6246055;23;20170;-77
2021/12/08 14:38:30;;;;;;;4.07;2.00;;;7.20;99.90;;;;;;6247112;23;20170;-78
2021/12/08 14:40:57;;;;;;;8.27;1.90;;;7.20;99.90;;;;;;6246748;23;20172;-79
2021/12/08 14:43:26;;;;;;;3.17;1.60;;;7.20;99.90;;;;;;6247227;23;20169;-77
2021/12/08 14:45:54;;;;;;;4.77;2.50;;;7.20;99.90;;;;;;6247076;23;20489;-77
2021/12/08 14:48:21;;;;;;;3.67;1.80;;;7.10;99.90;;;;;;6247418;23;20174;-78
2021/12/08 14:50:48;;;;;;;3.00;1.70;;;7.00;99.90;;;;;;6246426;23;20177;-79
2021/12/08 14:53:15;;;;;;;3.93;1.77;;;7.00;99.90;;;;;;6246259;23;20486;-78
2021/12/08 14:55:42;;;;;;;5.63;2.00;;;7.00;99.90;;;;;;6247079;23;20170;-78
2021/12/08 14:58:13;;;;;;;6.40;2.20;;;6.90;99.90;;;;;;6246814;23;20528;-77
2021/12/08 15:00:41;;;;;;;5.43;2.10;;;7.00;99.90;;;;;;6247317;23;20163;-76
2021/12/08 15:03:14;;;;;;;6.33;2.27;;;7.00;99.90;;;;;;6247430;23;20488;-77
2021/12/08 15:05:45;;;;;;;7.13;2.73;;;6.90;99.90;;;;;;6246449;23;20220;-79
2021/12/08 15:08:14;;;;;;;6.93;2.30;;;6.70;99.90;;;;;;6247782;23;20170;-80
2021/12/08 15:10:43;;;;;;;5.43;2.20;;;6.70;99.90;;;;;;6247504;23;20170;-78
2021/12/08 15:13:13;;;;;;;6.05;2.42;;;6.60;99.90;;;;;;6245712;23;20414;-78
2021/12/08 15:15:41;;;;;;;6.07;2.33;;;6.70;99.90;;;;;;6246989;23;20617;-77
2021/12/08 15:18:12;;;;;;;7.10;2.20;;;6.80;99.90;;;;;;6246564;23;20202;-78
2021/12/08 15:20:43;;;;;;;5.60;2.13;;;6.80;99.90;;;;;;6246904;23;20268;-79
2021/12/08 15:23:13;;;;;;;6.30;2.43;;;6.80;99.90;;;;;;6247169;23;20166;-79
2021/12/08 15:25:42;;;;;;;5.77;2.00;;;6.70;99.90;;;;;;6249639;23;20166;-77
2021/12/08 15:28:13;;;;;;;6.60;2.17;;;6.60;99.90;;;;;;6248932;23;20241;-80
2021/12/08 15:30:43;;;;;;;4.77;2.50;;;6.50;99.90;;;;;;6248585;23;20204;-79
2021/12/08 15:33:15;;;;;;;4.97;2.50;;;6.40;99.90;;;;;;6247604;23;20162;-81
2021/12/08 15:35:43;;;;;;;10.13;2.57;;;6.50;99.90;;;;;;6246396;23;20166;-79
2021/12/08 15:38:14;;;;;;;3.40;2.10;;;6.40;99.90;;;;;;6246458;23;20174;-83
2021/12/08 15:40:43;;;;;;;6.03;2.37;;;6.40;99.90;;;;;;6247128;23;20261;-85
2021/12/08 15:43:14;;;;;;;3.00;2.23;;;6.40;99.90;;;;;;6249150;23;20167;-85
2021/12/08 15:45:44;;;;;;;5.37;2.13;;;6.40;99.90;;;;;;6248275;23;20188;-84
2021/12/08 15:48:22;;;;;;;7.27;3.53;;;6.40;99.90;;;;;;6246951;23;20291;-80
2021/12/08 15:50:53;;;;;;;8.10;2.23;;;6.30;99.90;;;;;;6248198;23;20201;-81
2021/12/08 15:53:26;;;;;;;3.30;2.20;;;6.20;99.90;;;;;;6255496;23;20166;-80
2021/12/08 15:56:01;;;;;;;6.20;2.20;;;6.30;99.90;;;;;;6255780;23;20228;-82
2021/12/08 15:58:36;;;;;;;8.07;2.20;;;6.30;99.90;;;;;;6254736;23;20195;-82
2021/12/08 16:01:05;;;;;;;5.90;2.57;;;6.30;99.90;;;;;;6253786;23;20180;-80
2021/12/08 16:03:42;;;;;;;8.57;2.90;;;6.30;99.90;;;;;;6249491;23;20491;-82
2021/12/08 16:06:15;;;;;;;3.67;2.30;;;6.20;99.90;;;;;;6248223;23;20237;-79
2021/12/08 16:08:44;;;;;;;7.43;2.20;;;6.20;99.90;;;;;;6247851;23;20163;-85
2021/12/08 16:11:25;;;;;;;6.43;2.20;;;6.20;99.90;;;;;;6247104;23;20170;-83
2021/12/08 16:13:52;;;;;;;11.20;2.27;;;6.40;99.90;;;;;;6246902;23;20172;-79
2021/12/08 16:16:30;;;;;;;7.37;2.50;;;6.20;99.90;;;;;;6247243;23;20194;-78
2021/12/08 16:19:09;;;;;;;6.77;2.80;;;6.20;99.90;;;;;;6246093;23;20624;-78
2021/12/08 16:21:36;;;;;;;5.67;2.33;;;6.10;99.90;;;;;;6246267;23;20169;-79
2021/12/08 16:24:02;;;;;;;5.73;2.30;;;6.10;99.90;;;;;;6246045;23;20162;-79
2021/12/08 16:26:29;;;;;;;8.67;2.87;;;6.20;99.90;;;;;;6246083;23;20636;-79
2021/12/08 16:28:57;;;;;;;6.53;3.23;;;6.10;99.90;;;;;;6245876;23;20162;-79
2021/12/08 16:31:24;;;;;;;5.90;3.00;;;6.00;99.90;;;;;;6245391;23;20177;-81
2021/12/08 16:33:53;;;;;;;6.47;2.40;;;6.00;99.90;;;;;;6244989;23;20169;-80
2021/12/08 16:36:21;;;;;;;7.17;2.83;;;6.00;99.90;;;;;;6245865;23;20188;-79
2021/12/08 16:38:49;;;;;;;6.57;2.60;;;6.00;99.90;;;;;;6245786;23;20201;-81
2021/12/08 16:44:00;;;;;;;10.77;2.43;;;5.90;99.90;;;;;;6245891;23;20216;-82
2021/12/08 16:46:27;;;;;;;4.63;2.30;;;6.00;99.90;;;;;;6245789;23;20169;-82
2021/12/08 16:48:54;;;;;;;7.47;2.27;;;6.00;99.90;;;;;;6245575;23;20180;-89
2021/12/08 16:51:23;;;;;;;5.77;2.33;;;5.90;99.90;;;;;;6246839;23;20185;-86
2021/12/08 16:53:53;;;;;;;6.87;2.90;;;6.00;99.90;;;;;;6246398;23;20492;-86
2021/12/08 16:56:21;;;;;;;5.57;2.43;;;6.00;99.90;;;;;;6246973;23;20198;-88
2021/12/08 16:58:54;;;;;;;8.30;2.70;;;6.00;99.90;;;;;;6246805;23;20194;-83
2021/12/08 17:01:23;;;;;;;9.63;3.00;;;5.90;99.90;;;;;;6249826;23;20173;-84
2021/12/08 17:03:50;;;;;;;5.70;2.73;;;5.90;99.90;;;;;;6250856;23;20232;-86
2021/12/08 17:06:19;;;;;;;5.00;2.63;;;5.80;99.90;;;;;;6246916;23;20276;-87
2021/12/08 17:08:50;;;;;;;9.37;3.07;;;5.90;99.90;;;;;;6247000;22;20170;-83
2021/12/08 17:11:18;;;;;;;10.00;2.60;;;5.80;99.90;;;;;;6246607;23;20256;-89
2021/12/08 17:13:47;;;;;;;6.37;2.87;;;5.80;99.90;;;;;;6246150;23;20638;-81
2021/12/08 17:16:14;;;;;;;6.23;2.70;;;5.80;99.90;;;;;;6245926;23;20194;-85
2021/12/08 17:18:43;;;;;;;8.60;3.30;;;5.80;99.90;;;;;;6247295;23;20201;-86
2021/12/08 17:21:10;;;;;;;11.60;3.00;;;5.80;99.90;;;;;;6249027;23;20188;-85
2021/12/08 17:23:38;;;;;;;9.40;3.17;;;5.70;99.90;;;;;;6248225;23;20166;-88
2021/12/08 17:26:09;;;;;;;6.53;2.90;;;5.70;99.90;;;;;;6248152;23;20168;-88
2021/12/08 17:28:42;;;;;;;5.73;2.23;;;5.60;99.90;;;;;;6247882;23;20617;-85
2021/12/08 17:31:12;;;;;;;9.23;2.47;;;5.60;99.90;;;;;;6247997;23;20183;-85
2021/12/08 17:33:43;;;;;;;8.13;2.80;;;5.70;99.90;;;;;;6247388;22;20173;-83
2021/12/08 17:36:12;;;;;;;8.10;2.80;;;5.70;99.90;;;;;;6248045;23;20177;-83
2021/12/08 17:38:41;;;;;;;7.50;2.30;;;5.70;99.90;;;;;;6247919;23;20190;-81
2021/12/08 17:41:12;;;;;;;10.83;3.17;;;5.60;99.90;;;;;;6247673;23;20624;-82
2021/12/08 17:43:40;;;;;;;12.83;2.77;;;5.60;99.90;;;;;;6247781;23;20166;-79
2021/12/08 17:46:10;;;;;;;6.50;2.50;;;5.60;99.90;;;;;;6247549;23;20635;-80
2021/12/08 17:48:37;;;;;;;7.17;2.80;;;5.60;99.90;;;;;;6247863;23;20213;-82
2021/12/08 17:51:08;;;;;;;10.43;3.13;;;5.60;99.90;;;;;;6247469;23;20162;-81
2021/12/08 17:53:35;;;;;;;6.60;3.27;;;5.60;99.90;;;;;;6247299;23;20168;-78
2021/12/08 17:56:02;;;;;;;7.90;3.10;;;5.70;99.90;;;;;;6246708;23;20257;-74
2021/12/08 17:58:30;;;;;;;9.67;3.63;;;5.70;99.90;;;;;;6246805;23;20200;-73
2021/12/08 18:00:57;;;;;;;16.03;5.90;;;5.70;99.90;;;;;;6246550;23;20166;-75
2021/12/08 18:03:25;;;;;;;8.63;4.20;;;5.70;99.90;;;;;;6245643;23;20177;-73
2021/12/08 18:05:53;;;;;;;11.57;3.47;;;5.70;99.90;;;;;;6247038;23;20193;-74
2021/12/08 18:08:22;;;;;;;6.00;3.10;;;5.60;99.90;;;;;;6246992;23;20212;-74
2021/12/08 18:10:50;;;;;;;4.67;3.90;;;5.60;99.90;;;;;;6246771;23;20494;-74
2021/12/08 18:13:17;;;;;;;13.10;3.37;;;5.60;99.90;;;;;;6246415;23;20162;-74
2021/12/08 18:15:46;;;;;;;6.60;3.30;;;5.60;99.90;;;;;;6246713;23;20205;-76
2021/12/08 18:18:14;;;;;;;4.07;3.33;;;5.50;99.90;;;;;;6246417;23;20661;-78
2021/12/08 18:20:42;;;;;;;12.00;3.30;;;5.50;99.90;;;;;;6247151;23;20162;-81
2021/12/08 18:23:09;;;;;;;8.10;3.27;;;5.60;99.90;;;;;;6246671;23;20260;-76
2021/12/08 18:25:40;;;;;;;5.90;2.90;;;5.50;99.90;;;;;;6246614;23;20173;-75
2021/12/08 18:28:14;;;;;;;10.00;2.83;;;5.40;99.90;;;;;;6245471;22;20180;-76
2021/12/08 18:30:43;;;;;;;6.57;2.93;;;5.40;99.90;;;;;;6246655;22;20185;-76
2021/12/08 18:33:12;;;;;;;3.17;2.60;;;5.30;99.90;;;;;;6246905;23;20602;-82
2021/12/08 18:36:04;;;;;;;5.57;2.60;;;5.40;99.90;;;;;;6248258;23;20514;-81
2021/12/08 18:38:34;;;;;;;6.93;3.00;;;5.40;99.90;;;;;;6246262;23;20675;-79
2021/12/08 18:41:04;;;;;;;7.90;3.77;;;5.40;99.90;;;;;;6248340;23;20169;-80
2021/12/08 18:43:34;;;;;;;9.73;4.47;;;5.40;99.90;;;;;;6248236;23;20162;-79
2021/12/08 18:46:01;;;;;;;15.33;5.63;;;5.40;99.90;;;;;;6247308;23;20245;-78
2021/12/08 18:48:30;;;;;;;10.53;5.03;;;5.30;99.90;;;;;;6247599;23;20174;-84
2021/12/08 18:50:58;;;;;;;8.17;3.87;;;5.40;99.90;;;;;;6247464;23;20212;-80
2021/12/08 18:53:25;;;;;;;7.03;3.60;;;5.40;99.90;;;;;;6246926;22;20174;-78
2021/12/08 18:55:52;;;;;;;7.77;3.40;;;5.40;99.90;;;;;;6247071;23;20178;-84
2021/12/08 18:58:20;;;;;;;8.30;3.60;;;5.40;99.90;;;;;;6246954;23;20186;-78
2021/12/08 19:00:48;;;;;;;6.20;4.03;;;5.40;99.90;;;;;;6246274;23;20914;-83
2021/12/08 19:03:15;;;;;;;8.23;4.37;;;5.30;99.90;;;;;;6247160;23;20181;-81
2021/12/08 19:05:43;;;;;;;7.00;3.53;;;5.30;99.90;;;;;;6247241;23;20188;-80
2021/12/08 19:08:11;;;;;;;5.93;3.53;;;5.30;99.90;;;;;;6246692;23;20169;-83
2021/12/08 19:10:43;;;;;;;6.70;3.03;;;5.20;99.90;;;;;;6246683;23;20601;-88
2021/12/08 19:13:17;;;;;;;7.00;3.00;;;5.30;99.90;;;;;;6247413;23;20174;-89
2021/12/08 19:15:45;;;;;;;5.27;3.30;;;5.30;99.90;;;;;;6246891;23;20431;-88
2021/12/08 19:18:16;;;;;;;8.40;3.37;;;5.30;99.90;;;;;;6247162;23;20197;-88
2021/12/08 19:20:49;;;;;;;7.67;3.40;;;5.30;99.90;;;;;;6247895;22;20379;-88
2021/12/08 19:23:26;;;;;;;3.90;2.93;;;5.20;99.90;;;;;;6247956;23;20170;-88
2021/12/08 19:25:59;;;;;;;9.90;3.13;;;5.20;99.90;;;;;;6247343;23;20162;-88
2021/12/08 19:28:28;;;;;;;4.70;2.50;;;5.20;99.90;;;;;;6247791;23;20501;-90
2021/12/08 19:30:56;;;;;;;12.37;3.90;;;5.20;99.90;;;;;;6245150;23;20173;-81
2021/12/08 19:33:23;;;;;;;7.73;3.10;;;5.20;99.90;;;;;;6246192;23;20392;-82
2021/12/08 19:35:56;;;;;;;7.60;3.10;;;5.20;99.90;;;;;;6246306;23;20173;-82
2021/12/08 19:38:23;;;;;;;7.67;3.07;;;5.20;99.90;;;;;;6246144;23;20644;-82
2021/12/08 19:40:51;;;;;;;6.17;3.30;;;5.10;99.90;;;;;;6245429;23;20170;-82